Aviation Digital Data Service (ADDS)

Output produced by TAFs form (1432 UTC 05 December 2016)
found at http://aviationweather.gov/adds/tafs/
 
KLVS 051129Z 0512/0612 22010KT P6SM SKC 
     FM051700 25010G20KT P6SM SCT250 
     FM051900 27020G30KT P6SM FEW150 BKN200 
     FM060100 28010KT P6SM FEW150 BKN200 
     FM060500 03007KT P6SM FEW140 BKN200